createdAt,value
2019-01-19T00:00:24.573Z,21.53
2019-01-19T00:02:59.009Z,24.50
2019-01-19T00:05:42.482Z,31.60
2019-01-19T00:08:14.082Z,20.03
2019-01-19T00:10:54.833Z,29.03
2019-01-19T00:13:38.369Z,22.10
2019-01-19T00:16:12.653Z,27.07
2019-01-19T00:18:59.226Z,24.47
2019-01-19T00:21:30.773Z,22.10
2019-01-19T00:24:10.828Z,20.50
2019-01-19T00:27:02.089Z,19.23
2019-01-19T00:29:36.138Z,29.70
2019-01-19T00:32:10.444Z,25.80
2019-01-19T00:34:53.977Z,31.93
2019-01-19T00:37:25.533Z,28.50
2019-01-19T00:39:59.917Z,26.97
2019-01-19T00:42:34.208Z,19.37
2019-01-19T00:45:17.884Z,22.40
2019-01-19T00:47:58.337Z,25.37
2019-01-19T00:50:46.352Z,20.37
2019-01-19T00:53:20.513Z,23.07
2019-01-19T00:55:52.042Z,23.23
2019-01-19T00:58:24.414Z,23.27
2019-01-19T01:01:04.973Z,27.67
2019-01-19T01:03:56.109Z,22.23
2019-01-19T01:06:39.706Z,21.33
2019-01-19T01:09:26.044Z,31.27
2019-01-19T01:11:58.901Z,31.07
2019-01-19T01:14:42.421Z,23.67
2019-01-19T01:17:13.941Z,25.57
2019-01-19T01:20:00.449Z,20.70
2019-01-19T01:22:41.176Z,26.13
2019-01-19T01:25:24.864Z,22.80
2019-01-19T01:28:08.445Z,20.53
2019-01-19T01:30:51.851Z,20.93
2019-01-19T01:33:29.332Z,26.27
2019-01-19T01:36:35.768Z,26.87
2019-01-19T01:39:29.953Z,19.40
2019-01-19T01:42:16.321Z,29.40
2019-01-19T01:44:53.381Z,18.63
2019-01-19T01:47:56.549Z,32.20
2019-01-19T01:50:39.845Z,22.90
2019-01-19T01:53:14.134Z,23.87
2019-01-19T01:55:42.725Z,29.17
2019-01-19T01:58:16.889Z,24.73
2019-01-19T02:01:00.261Z,24.27
2019-01-19T02:03:46.490Z,21.00
2019-01-19T02:06:37.679Z,29.50
2019-01-19T02:09:24.017Z,24.97
2019-01-19T02:12:04.509Z,24.47
2019-01-19T02:14:42.141Z,18.93
2019-01-19T02:17:16.526Z,20.73
2019-01-19T02:19:48.048Z,22.93
2019-01-19T02:22:31.630Z,20.43
2019-01-19T02:25:15.093Z,22.07
2019-01-19T02:28:01.365Z,19.80
2019-01-19T02:30:54.110Z,19.67
2019-01-19T02:33:42.369Z,25.30
2019-01-19T02:36:19.518Z,24.07
2019-01-19T02:38:57.160Z,21.03
2019-01-19T02:41:45.193Z,21.37
2019-01-19T02:44:28.582Z,22.17
2019-01-19T02:47:06.321Z,23.53
2019-01-19T02:49:56.181Z,21.97
2019-01-19T02:52:39.661Z,26.90
2019-01-19T02:55:20.205Z,18.57
2019-01-19T02:58:10.741Z,19.40
2019-01-19T03:01:03.145Z,17.17
2019-01-19T03:03:37.362Z,22.90
2019-01-19T03:06:14.697Z,23.20
2019-01-19T03:09:07.081Z,20.17
2019-01-19T03:11:41.340Z,19.63
2019-01-19T03:14:24.580Z,17.27
2019-01-19T03:17:10.884Z,20.53
2019-01-19T03:19:51.070Z,18.03
2019-01-19T03:22:25.504Z,22.33
2019-01-19T03:25:15.902Z,21.33
2019-01-19T03:27:50.069Z,23.73
2019-01-19T03:30:27.383Z,19.20
2019-01-19T03:33:15.347Z,25.77
2019-01-19T03:35:52.265Z,26.03
2019-01-19T03:38:42.613Z,26.03
2019-01-19T03:41:22.672Z,27.03
2019-01-19T03:44:08.492Z,27.13
2019-01-19T03:46:40.094Z,32.17
2019-01-19T03:49:23.588Z,24.70
2019-01-19T03:52:03.848Z,30.80
2019-01-19T03:54:47.041Z,28.00
2019-01-19T03:57:24.498Z,20.13
2019-01-19T04:00:13.990Z,21.70
2019-01-19T04:02:55.705Z,25.57
2019-01-19T04:05:36.198Z,22.47
2019-01-19T04:08:24.432Z,21.33
2019-01-19T04:10:58.604Z,17.60
2019-01-19T04:13:45.119Z,22.13
2019-01-19T04:16:40.935Z,23.93
2019-01-19T04:19:21.289Z,22.60
2019-01-19T04:21:58.497Z,25.93
2019-01-19T04:24:29.290Z,22.03
2019-01-19T04:26:57.814Z,32.90
2019-01-19T04:29:26.294Z,32.27
2019-01-19T04:31:54.814Z,30.30
2019-01-19T04:34:23.442Z,34.03
2019-01-19T04:36:52.385Z,36.17
2019-01-19T04:39:20.908Z,30.23
2019-01-19T04:41:49.437Z,40.63
2019-01-19T04:44:17.921Z,29.20
2019-01-19T04:46:46.447Z,23.47
2019-01-19T04:49:14.964Z,26.17
2019-01-19T04:51:43.522Z,29.27
2019-01-19T04:54:12.043Z,19.77
2019-01-19T04:56:40.498Z,27.00
2019-01-19T04:59:09.043Z,22.50
2019-01-19T05:01:37.492Z,20.60
2019-01-19T05:04:06.008Z,24.10
2019-01-19T05:06:34.724Z,30.77
2019-01-19T05:09:04.025Z,20.20
2019-01-19T05:11:32.485Z,23.60
2019-01-19T05:14:01.037Z,24.57
2019-01-19T05:16:29.485Z,23.07
2019-01-19T05:18:57.940Z,27.43
2019-01-19T05:21:26.901Z,22.17
2019-01-19T05:23:55.833Z,19.57
2019-01-19T05:26:24.359Z,30.03
2019-01-19T05:28:52.914Z,26.30
2019-01-19T05:31:21.368Z,26.67
2019-01-19T05:33:49.821Z,30.80
2019-01-19T05:36:18.298Z,20.87
2019-01-19T05:38:46.889Z,21.47
2019-01-19T05:41:15.344Z,27.63
2019-01-19T05:43:43.834Z,29.00
2019-01-19T05:46:12.361Z,30.23
2019-01-19T05:48:40.816Z,29.53
2019-01-19T05:51:09.377Z,30.20
2019-01-19T05:53:37.911Z,33.33
2019-01-19T05:56:06.433Z,26.07
2019-01-19T05:58:34.977Z,31.80
2019-01-19T06:01:03.503Z,31.13
2019-01-19T06:03:31.955Z,28.33
2019-01-19T06:06:01.526Z,40.60
2019-01-19T06:08:29.985Z,34.17
2019-01-19T06:10:58.433Z,32.10
2019-01-19T06:13:26.950Z,33.13
2019-01-19T06:15:55.539Z,40.40
2019-01-19T06:18:23.994Z,34.50
2019-01-19T06:20:52.478Z,43.83
2019-01-19T06:23:21.020Z,30.37
2019-01-19T06:25:49.565Z,39.03
2019-01-19T06:28:18.087Z,37.53
2019-01-19T06:30:46.537Z,39.73
2019-01-19T06:33:15.066Z,37.73
2019-01-19T06:35:43.561Z,41.77
2019-01-19T06:38:12.013Z,49.57
2019-01-19T06:40:40.501Z,65.37
2019-01-19T06:43:08.993Z,56.80
2019-01-19T06:45:37.521Z,56.90
2019-01-19T06:48:06.049Z,56.13
2019-01-19T06:50:34.661Z,78.53
2019-01-19T06:53:03.122Z,97.37
2019-01-19T06:55:31.718Z,99.33
2019-01-19T06:58:00.214Z,84.63
2019-01-19T07:00:28.665Z,74.50
2019-01-19T07:02:57.190Z,80.60
2019-01-19T07:05:25.669Z,70.67
2019-01-19T07:07:54.126Z,78.53
2019-01-19T07:10:25.453Z,71.27
2019-01-19T07:12:53.929Z,71.97
2019-01-19T07:15:22.460Z,105.27
2019-01-19T07:17:50.990Z,119.60
2019-01-19T07:20:22.125Z,117.47
2019-01-19T07:22:50.653Z,126.30
2019-01-19T07:25:19.183Z,156.13
2019-01-19T07:27:47.742Z,146.10
2019-01-19T07:30:17.141Z,148.43
2019-01-19T07:32:46.949Z,129.47
2019-01-19T07:35:16.265Z,127.13
2019-01-19T07:37:44.855Z,113.40
2019-01-19T07:40:19.881Z,97.03
2019-01-19T07:42:50.078Z,86.27
2019-01-19T07:45:18.610Z,70.77
2019-01-19T07:47:47.133Z,65.90
2019-01-19T07:50:17.858Z,58.53
2019-01-19T07:52:46.620Z,56.57
2019-01-19T07:55:17.777Z,51.23
2019-01-19T07:57:46.698Z,53.50
2019-01-19T08:00:18.093Z,145.70
2019-01-19T08:02:46.691Z,193.90
2019-01-19T08:05:15.347Z,103.77
2019-01-19T08:07:43.869Z,71.07
2019-01-19T08:10:17.522Z,56.37
2019-01-19T08:12:46.322Z,56.90
2019-01-19T08:15:17.595Z,52.47
2019-01-19T08:17:46.189Z,52.30
2019-01-19T08:20:15.502Z,48.47
2019-01-19T08:22:44.103Z,49.80
2019-01-19T08:25:13.598Z,50.53
2019-01-19T08:27:42.162Z,46.67
2019-01-19T08:30:21.713Z,46.60
2019-01-19T08:32:50.734Z,36.83
2019-01-19T08:35:19.329Z,39.27
2019-01-19T08:37:48.527Z,39.67
2019-01-19T08:40:22.945Z,39.97
2019-01-19T08:42:53.179Z,40.23
2019-01-19T08:45:22.102Z,47.20
2019-01-19T08:47:52.601Z,43.27
2019-01-19T08:50:21.121Z,39.87
2019-01-19T08:52:49.657Z,42.23
2019-01-19T08:55:18.289Z,41.97
2019-01-19T08:57:46.982Z,38.73
2019-01-19T09:00:20.750Z,37.40
2019-01-19T09:02:49.592Z,39.57
2019-01-19T09:05:18.314Z,38.83
2019-01-19T09:07:46.926Z,38.87
2019-01-19T09:10:19.835Z,37.83
2019-01-19T09:12:48.579Z,39.63
2019-01-19T09:15:22.608Z,36.53
2019-01-19T09:17:51.175Z,41.30
2019-01-19T09:20:19.777Z,39.00
2019-01-19T09:22:49.966Z,39.70
2019-01-19T09:25:18.549Z,39.40
2019-01-19T09:27:47.132Z,43.97
2019-01-19T09:30:20.885Z,44.87
2019-01-19T09:32:49.594Z,39.53
2019-01-19T09:35:18.772Z,37.10
2019-01-19T09:37:47.523Z,42.07
2019-01-19T09:40:17.233Z,39.37
2019-01-19T09:42:46.496Z,42.77
2019-01-19T09:45:17.019Z,40.53
2019-01-19T09:47:45.638Z,40.33
2019-01-19T09:50:21.721Z,34.67
2019-01-19T09:52:50.199Z,35.47
2019-01-19T09:55:18.723Z,52.30
2019-01-19T09:57:47.317Z,36.50
2019-01-19T10:00:24.305Z,46.23
2019-01-19T10:02:52.895Z,38.20
2019-01-19T10:05:25.824Z,34.33
2019-01-19T10:07:54.516Z,32.80
2019-01-19T10:10:23.042Z,34.53
2019-01-19T10:12:51.565Z,31.50
2019-01-19T10:15:23.726Z,34.13
2019-01-19T10:17:52.365Z,34.63
2019-01-19T10:20:23.890Z,27.20
2019-01-19T10:22:52.534Z,36.27
2019-01-19T10:25:21.124Z,36.57
2019-01-19T10:27:49.718Z,32.67
2019-01-19T10:30:21.330Z,45.97
2019-01-19T10:32:49.927Z,38.07
2019-01-19T10:35:18.513Z,29.63
2019-01-19T10:37:47.261Z,31.07
2019-01-19T10:40:17.318Z,28.10
2019-01-19T10:42:45.837Z,54.70
2019-01-19T10:45:25.758Z,44.50
2019-01-19T10:47:54.845Z,37.67
2019-01-19T10:50:23.362Z,34.27
2019-01-19T10:52:51.997Z,35.17
